createdAt,value
2023-05-02T00:02:31.597Z,3.15
2023-05-02T00:05:35.116Z,1.85
2023-05-02T00:08:38.100Z,1.45
2023-05-02T00:11:40.810Z,3.00
2023-05-02T00:14:43.631Z,1.15
2023-05-02T00:17:46.269Z,1.50
2023-05-02T00:20:49.128Z,1.05
2023-05-02T00:23:52.297Z,5.03
2023-05-02T00:26:55.136Z,5.55
2023-05-02T00:29:58.984Z,1.42
2023-05-02T00:33:02.110Z,1.45
2023-05-02T00:36:04.951Z,0.88
2023-05-02T00:39:08.080Z,1.48
2023-05-02T00:42:11.380Z,0.93
2023-05-02T00:45:14.222Z,1.23
2023-05-02T00:48:18.304Z,0.82
2023-05-02T00:51:21.108Z,1.20
2023-05-02T00:54:23.841Z,4.10
2023-05-02T00:57:26.715Z,9.38
2023-05-02T01:00:55.915Z,11.20
2023-05-02T01:04:11.457Z,8.43
2023-05-02T01:07:29.028Z,18.83
2023-05-02T01:10:53.512Z,3.25
2023-05-02T01:13:57.526Z,1.50
2023-05-02T01:17:04.912Z,1.40
2023-05-02T01:20:12.630Z,0.98
2023-05-02T01:23:29.482Z,1.15
2023-05-02T01:26:53.357Z,0.80
2023-05-02T01:29:58.391Z,1.70
2023-05-02T01:33:03.190Z,1.00
2023-05-02T01:36:06.737Z,2.47
2023-05-02T01:39:12.320Z,1.30
2023-05-02T01:42:15.741Z,1.00
2023-05-02T01:45:20.089Z,0.98
2023-05-02T01:48:23.799Z,0.73
2023-05-02T01:51:32.302Z,1.17
2023-05-02T01:54:35.720Z,1.05
2023-05-02T01:57:41.209Z,1.20
2023-05-02T02:00:46.019Z,1.23
2023-05-02T02:03:48.957Z,1.00
2023-05-02T02:06:56.400Z,0.88
2023-05-02T02:09:59.334Z,0.73
2023-05-02T02:13:08.406Z,0.80
2023-05-02T02:16:13.452Z,0.90
2023-05-02T02:19:16.285Z,1.00
2023-05-02T02:22:20.602Z,0.98
2023-05-02T02:25:23.820Z,0.88
2023-05-02T02:28:26.616Z,1.00
2023-05-02T02:31:36.011Z,1.00
2023-05-02T02:34:38.859Z,0.80
2023-05-02T02:37:49.411Z,0.93
2023-05-02T02:40:55.007Z,0.93
2023-05-02T02:44:01.876Z,0.60
2023-05-02T02:50:41.834Z,4.43
2023-05-02T02:54:22.996Z,1.38
2023-05-02T02:57:41.686Z,1.00
2023-05-02T03:00:45.412Z,1.17
2023-05-02T03:03:49.449Z,1.52
2023-05-02T03:06:52.415Z,1.10
2023-05-02T03:09:55.418Z,0.93
2023-05-02T03:13:00.344Z,2.00
2023-05-02T03:16:40.784Z,1.27
2023-05-02T03:19:48.353Z,0.85
2023-05-02T03:22:51.329Z,0.77
2023-05-02T03:25:53.993Z,1.85
2023-05-02T03:29:00.108Z,0.93
2023-05-02T03:32:09.583Z,0.98
2023-05-02T03:35:14.089Z,1.33
2023-05-02T03:38:20.198Z,1.10
2023-05-02T03:41:27.928Z,1.10
2023-05-02T03:44:37.663Z,1.13
2023-05-02T03:47:40.962Z,1.80
2023-05-02T03:50:44.223Z,2.17
2023-05-02T03:53:47.327Z,1.70
2023-05-02T03:56:50.067Z,0.73
2023-05-02T04:00:01.230Z,1.02
2023-05-02T04:03:14.240Z,1.02
2023-05-02T04:06:20.273Z,1.05
2023-05-02T04:09:29.241Z,1.00
2023-05-02T04:12:37.765Z,0.88
2023-05-02T04:15:41.235Z,0.70
2023-05-02T04:18:44.676Z,1.02
2023-05-02T04:21:48.637Z,0.77
2023-05-02T04:24:52.160Z,0.82
2023-05-02T04:27:55.090Z,1.00
2023-05-02T04:31:00.030Z,0.98
2023-05-02T04:34:04.864Z,0.98
2023-05-02T04:37:13.020Z,1.42
2023-05-02T04:40:17.787Z,1.08
2023-05-02T04:43:24.560Z,1.30
2023-05-02T04:46:33.097Z,0.82
2023-05-02T04:49:36.170Z,1.65
2023-05-02T04:52:39.260Z,1.10
2023-05-02T04:55:45.416Z,1.25
2023-05-02T04:58:48.343Z,1.10
2023-05-02T05:01:51.457Z,1.30
2023-05-02T05:04:54.538Z,1.20
2023-05-02T05:07:57.342Z,1.50
2023-05-02T05:11:02.464Z,1.45
2023-05-02T05:14:06.075Z,1.45
2023-05-02T05:17:12.861Z,1.00
2023-05-02T05:20:16.250Z,1.10
2023-05-02T05:23:19.500Z,0.70
2023-05-02T05:26:22.662Z,0.98
2023-05-02T05:29:25.715Z,1.00
2023-05-02T05:32:30.360Z,0.80
2023-05-02T05:35:33.224Z,1.00
2023-05-02T05:38:38.079Z,0.90
2023-05-02T05:41:41.814Z,1.15
2023-05-02T05:44:46.871Z,1.30
2023-05-02T05:47:51.903Z,1.73
2023-05-02T05:50:55.124Z,1.30
2023-05-02T05:53:58.066Z,1.65
2023-05-02T05:57:01.338Z,1.60
2023-05-02T06:00:05.113Z,1.25
2023-05-02T06:03:18.292Z,0.95
2023-05-02T06:06:22.255Z,1.50
2023-05-02T06:09:25.116Z,1.55
2023-05-02T06:12:28.713Z,1.10
2023-05-02T06:15:34.380Z,1.00
2023-05-02T06:18:37.780Z,0.95
2023-05-02T06:21:40.660Z,1.20
2023-05-02T06:24:43.460Z,0.90
2023-05-02T06:27:46.295Z,1.05
2023-05-02T06:30:58.229Z,0.88
2023-05-02T06:34:00.964Z,0.82
2023-05-02T06:37:03.811Z,1.17
2023-05-02T06:40:07.826Z,0.95
2023-05-02T06:43:10.649Z,0.90
2023-05-02T06:46:13.413Z,0.73
2023-05-02T06:49:16.425Z,0.85
2023-05-02T06:52:19.365Z,0.95
2023-05-02T06:55:22.523Z,1.00
2023-05-02T06:58:25.456Z,1.17
2023-05-02T07:01:28.275Z,1.30
2023-05-02T07:04:31.690Z,1.00
2023-05-02T07:07:34.764Z,1.13
2023-05-02T07:10:37.818Z,1.25
2023-05-02T07:13:40.713Z,1.30
2023-05-02T07:16:43.584Z,1.00
2023-05-02T07:19:46.559Z,1.17
2023-05-02T07:22:49.432Z,1.20
2023-05-02T07:25:52.652Z,1.48
2023-05-02T07:28:55.710Z,0.90
2023-05-02T07:31:58.584Z,1.15
2023-05-02T07:35:02.163Z,1.00
2023-05-02T07:38:05.002Z,1.38
2023-05-02T07:41:08.208Z,1.25
2023-05-02T07:44:12.206Z,1.38
2023-05-02T07:47:15.177Z,1.17
2023-05-02T07:50:17.965Z,1.50
2023-05-02T07:53:20.873Z,1.33
2023-05-02T07:56:25.433Z,1.40
2023-05-02T07:59:28.210Z,1.40
2023-05-02T08:02:30.931Z,1.65
2023-05-02T08:05:33.929Z,1.83
2023-05-02T08:08:37.645Z,2.10
2023-05-02T08:11:40.533Z,2.20
2023-05-02T08:14:44.650Z,2.10
2023-05-02T08:17:47.718Z,2.08
2023-05-02T08:20:51.596Z,1.42
2023-05-02T08:23:58.907Z,1.90
2023-05-02T08:27:03.817Z,2.00
2023-05-02T08:30:10.194Z,1.95
2023-05-02T08:33:14.669Z,2.28
2023-05-02T08:36:25.057Z,2.45
2023-05-02T08:42:34.069Z,2.08
2023-05-02T08:45:43.300Z,2.05
2023-05-02T08:48:50.129Z,1.52
2023-05-02T08:51:53.674Z,1.40
2023-05-02T08:54:58.823Z,1.40
2023-05-02T08:58:04.942Z,1.75
2023-05-02T09:01:23.325Z,2.33
2023-05-02T09:04:33.637Z,2.08
2023-05-02T09:07:52.945Z,1.58
2023-05-02T09:10:58.721Z,1.20
2023-05-02T09:14:04.711Z,1.30
2023-05-02T09:17:07.974Z,1.33
2023-05-02T09:20:16.189Z,1.15
2023-05-02T09:23:19.212Z,1.33
2023-05-02T09:26:22.952Z,1.58
2023-05-02T09:29:28.100Z,1.50
2023-05-02T09:32:49.089Z,1.33
2023-05-02T09:35:57.336Z,1.58
2023-05-02T09:39:13.901Z,1.95
2023-05-02T09:42:32.240Z,2.08
2023-05-02T09:45:35.846Z,1.80
2023-05-02T09:48:58.652Z,1.67
2023-05-02T09:52:15.680Z,1.90
2023-05-02T09:55:23.565Z,1.67
2023-05-02T09:58:26.838Z,1.30
2023-05-02T10:01:30.703Z,1.30
2023-05-02T10:04:34.923Z,1.45
2023-05-02T10:07:41.711Z,1.60
2023-05-02T10:10:59.056Z,1.77
2023-05-02T10:14:02.404Z,1.55
2023-05-02T10:17:30.533Z,2.05
2023-05-02T10:20:37.646Z,1.67
2023-05-02T10:23:45.968Z,1.90
2023-05-02T10:26:48.929Z,1.70
2023-05-02T10:29:52.361Z,1.95
2023-05-02T10:32:55.565Z,1.25
2023-05-02T10:35:59.068Z,1.92
2023-05-02T10:39:02.280Z,1.98
2023-05-02T10:42:05.145Z,1.70
2023-05-02T10:45:32.312Z,2.45
2023-05-02T10:48:37.448Z,2.00
2023-05-02T10:51:42.611Z,1.67
2023-05-02T10:54:45.734Z,2.40
2023-05-02T10:58:02.751Z,1.85
2023-05-02T11:01:27.587Z,2.13
2023-05-02T11:05:06.042Z,1.52
2023-05-02T11:08:22.985Z,1.67
2023-05-02T11:11:46.805Z,2.33
2023-05-02T11:14:50.085Z,1.95
2023-05-02T11:18:14.830Z,2.42
2023-05-02T11:21:31.619Z,2.33
2023-05-02T11:24:41.827Z,2.40
2023-05-02T11:27:46.606Z,2.85
2023-05-02T11:30:51.242Z,2.08
2023-05-02T11:34:04.257Z,2.65
2023-05-02T11:37:14.885Z,2.42
2023-05-02T11:40:18.028Z,2.33
2023-05-02T11:43:22.356Z,3.08
2023-05-02T11:46:25.232Z,2.63
2023-05-02T11:49:28.355Z,2.47
2023-05-02T11:52:41.489Z,2.35
2023-05-02T11:55:55.895Z,3.10
2023-05-02T11:59:03.621Z,2.72
2023-05-02T12:02:07.953Z,3.45
2023-05-02T12:05:12.654Z,3.03
2023-05-02T12:08:26.997Z,3.05
2023-05-02T12:11:30.905Z,3.28
2023-05-02T12:14:34.147Z,2.72
2023-05-02T12:17:41.642Z,2.50
2023-05-02T12:20:45.378Z,2.20
2023-05-02T12:23:48.174Z,2.08
2023-05-02T12:26:53.121Z,1.85
2023-05-02T12:29:57.801Z,2.50
2023-05-02T12:36:09.958Z,2.22
2023-05-02T12:42:18.531Z,3.17
2023-05-02T12:45:21.413Z,2.50
2023-05-02T12:48:28.331Z,2.72
2023-05-02T12:54:36.229Z,2.55
2023-05-02T12:57:39.223Z,2.70
2023-05-02T13:00:44.813Z,3.00
2023-05-02T13:03:51.879Z,2.17
2023-05-02T13:06:55.190Z,2.67
2023-05-02T13:09:58.103Z,3.30
2023-05-02T13:13:01.490Z,2.55
2023-05-02T13:16:04.925Z,3.03
2023-05-02T13:19:08.698Z,2.88
2023-05-02T13:22:15.263Z,2.72
2023-05-02T13:28:21.211Z,2.45
2023-05-02T13:31:24.171Z,3.33
2023-05-02T13:34:27.205Z,2.92
2023-05-02T13:37:30.223Z,3.00
2023-05-02T13:40:33.200Z,2.90
2023-05-02T13:43:36.053Z,3.30
2023-05-02T13:46:39.389Z,3.40
2023-05-02T13:49:42.534Z,2.78
2023-05-02T13:52:47.723Z,2.72
2023-05-02T13:55:52.015Z,3.10
2023-05-02T13:58:54.880Z,3.05
2023-05-02T14:01:57.891Z,2.83
2023-05-02T14:05:00.771Z,4.20
2023-05-02T14:08:04.640Z,3.85
2023-05-02T14:11:07.720Z,3.78
2023-05-02T14:14:12.813Z,3.70
2023-05-02T14:17:15.703Z,4.07
2023-05-02T14:20:18.676Z,4.47
2023-05-02T14:23:21.950Z,4.47
2023-05-02T14:26:24.929Z,4.28
2023-05-02T14:29:27.848Z,4.88
2023-05-02T14:32:30.930Z,4.88
2023-05-02T14:35:33.889Z,4.32
2023-05-02T14:38:37.070Z,4.32
2023-05-02T14:41:39.997Z,4.90
2023-05-02T14:44:42.912Z,4.88
2023-05-02T14:47:46.302Z,4.30
2023-05-02T14:50:49.342Z,4.70
2023-05-02T14:53:52.110Z,4.35
2023-05-02T14:56:54.899Z,3.65
2023-05-02T14:59:57.987Z,3.50
2023-05-02T15:03:02.541Z,3.25
2023-05-02T15:06:06.824Z,3.60
2023-05-02T15:09:09.873Z,3.97
2023-05-02T15:12:15.047Z,3.35
2023-05-02T15:15:20.765Z,3.40
2023-05-02T15:18:23.775Z,4.13
2023-05-02T15:21:27.305Z,3.40
2023-05-02T15:24:31.444Z,3.97
2023-05-02T15:27:34.452Z,4.25
2023-05-02T15:30:37.462Z,4.32
2023-05-02T15:33:40.894Z,3.70
2023-05-02T15:36:44.093Z,3.75
2023-05-02T15:39:47.449Z,3.92
2023-05-02T15:42:50.700Z,4.03
2023-05-02T15:45:54.514Z,3.70
2023-05-02T15:48:57.449Z,4.13
2023-05-02T15:52:01.221Z,3.58
2023-05-02T15:55:04.720Z,3.50
2023-05-02T15:58:07.636Z,3.80
2023-05-02T16:01:10.774Z,3.63
2023-05-02T16:04:13.784Z,4.07
2023-05-02T16:07:16.661Z,3.47
2023-05-02T16:10:19.600Z,3.80
2023-05-02T16:13:25.296Z,3.75
2023-05-02T16:16:28.496Z,3.75
2023-05-02T16:19:31.511Z,3.85
2023-05-02T16:22:34.511Z,3.97
2023-05-02T16:25:37.341Z,3.83
2023-05-02T16:28:40.690Z,3.83
2023-05-02T16:31:44.939Z,3.63
2023-05-02T16:34:48.580Z,3.63
2023-05-02T16:37:51.668Z,5.03
2023-05-02T16:40:54.471Z,3.90
2023-05-02T16:43:57.346Z,3.70
2023-05-02T16:47:00.533Z,4.13
2023-05-02T16:50:03.919Z,3.53
2023-05-02T16:53:07.113Z,3.63
2023-05-02T16:56:10.042Z,3.47
2023-05-02T16:59:12.871Z,2.97
2023-05-02T17:02:17.081Z,2.70
2023-05-02T17:05:21.064Z,2.83
2023-05-02T17:08:24.195Z,3.17
2023-05-02T17:11:27.296Z,3.30
2023-05-02T17:14:30.296Z,2.65
2023-05-02T17:17:33.414Z,3.42
2023-05-02T17:20:36.587Z,2.65
2023-05-02T17:23:40.031Z,3.08
2023-05-02T17:26:42.693Z,2.85
2023-05-02T17:29:46.273Z,2.95
2023-05-02T17:32:49.212Z,3.00
2023-05-02T17:35:52.917Z,2.42
2023-05-02T17:38:55.734Z,2.65
2023-05-02T17:41:58.673Z,2.63
2023-05-02T17:45:01.489Z,2.53
2023-05-02T17:48:04.480Z,2.40
2023-05-02T17:51:07.445Z,2.65
2023-05-02T17:54:10.203Z,2.20
2023-05-02T17:57:14.870Z,2.17
2023-05-02T18:00:19.200Z,2.28
2023-05-02T18:03:22.373Z,2.20
2023-05-02T18:06:25.582Z,2.13
2023-05-02T18:09:28.486Z,2.38
2023-05-02T18:12:32.658Z,2.28
2023-05-02T18:15:35.456Z,1.88
2023-05-02T18:18:38.924Z,2.50
2023-05-02T18:21:42.580Z,2.47
2023-05-02T18:24:45.450Z,2.25
2023-05-02T18:27:48.459Z,2.90
2023-05-02T18:30:51.303Z,1.67
2023-05-02T18:33:54.634Z,2.20
2023-05-02T18:36:59.976Z,2.13
2023-05-02T18:40:03.580Z,2.03
2023-05-02T18:43:06.609Z,2.28
2023-05-02T18:46:09.653Z,2.58
2023-05-02T18:49:12.761Z,2.33
2023-05-02T18:52:15.689Z,2.15
2023-05-02T18:55:19.228Z,2.67
2023-05-02T18:58:22.911Z,2.92
2023-05-02T19:01:26.479Z,2.70
2023-05-02T19:04:32.075Z,3.08
2023-05-02T19:07:36.279Z,2.80
2023-05-02T19:10:41.191Z,3.20
2023-05-02T19:13:43.955Z,4.07
2023-05-02T19:16:47.283Z,3.90
2023-05-02T19:19:51.289Z,3.90
2023-05-02T19:23:07.234Z,3.85
2023-05-02T19:26:18.193Z,3.53
2023-05-02T19:29:21.260Z,4.55
2023-05-02T19:32:25.556Z,3.47
2023-05-02T19:35:29.201Z,4.10
2023-05-02T19:38:32.162Z,3.55
2023-05-02T19:41:34.846Z,3.70
2023-05-02T19:44:38.010Z,3.72
2023-05-02T19:47:44.113Z,4.50
2023-05-02T19:50:47.155Z,3.90
2023-05-02T19:53:50.005Z,4.32
2023-05-02T19:56:52.790Z,4.07
2023-05-02T19:59:56.114Z,4.60
2023-05-02T20:02:58.909Z,4.93
2023-05-02T20:06:01.803Z,4.50
2023-05-02T20:09:04.654Z,4.88
2023-05-02T20:12:07.695Z,4.00
2023-05-02T20:15:11.873Z,4.97
2023-05-02T20:18:15.065Z,4.38
2023-05-02T20:21:17.870Z,3.78
2023-05-02T20:24:20.658Z,3.90
2023-05-02T20:27:23.712Z,3.70
2023-05-02T20:30:26.553Z,4.50
2023-05-02T20:33:43.761Z,5.13
2023-05-02T20:36:47.677Z,4.45
2023-05-02T20:39:50.671Z,5.47
2023-05-02T20:42:54.149Z,5.10
2023-05-02T20:45:57.051Z,5.40
2023-05-02T20:49:00.013Z,6.22
2023-05-02T20:52:06.196Z,6.60
2023-05-02T20:55:09.343Z,6.97
2023-05-02T20:58:13.306Z,6.32
2023-05-02T21:01:16.327Z,7.03
2023-05-02T21:04:19.543Z,6.18
2023-05-02T21:07:22.675Z,5.63
2023-05-02T21:10:28.027Z,5.07
2023-05-02T21:13:30.780Z,4.88
2023-05-02T21:16:33.597Z,5.43
2023-05-02T21:19:37.989Z,4.80
2023-05-02T21:22:42.242Z,4.45
2023-05-02T21:25:45.052Z,5.18
2023-05-02T21:28:47.690Z,4.63
2023-05-02T21:31:51.929Z,4.53
2023-05-02T21:34:55.998Z,4.07
2023-05-02T21:37:58.762Z,4.50
2023-05-02T21:41:03.373Z,4.22
2023-05-02T21:44:06.276Z,3.65
2023-05-02T21:47:09.461Z,3.70
2023-05-02T21:50:12.331Z,3.95
2023-05-02T21:53:15.140Z,3.20
2023-05-02T21:56:17.790Z,3.20
2023-05-02T21:59:20.453Z,2.85
2023-05-02T22:02:24.038Z,3.38
2023-05-02T22:05:26.804Z,3.30
2023-05-02T22:08:29.478Z,4.00
2023-05-02T22:11:32.458Z,3.50
2023-05-02T22:14:44.484Z,4.20
2023-05-02T22:17:48.703Z,3.90
2023-05-02T22:20:51.423Z,3.70
2023-05-02T22:23:56.838Z,4.20
2023-05-02T22:26:59.507Z,3.92
2023-05-02T22:30:02.706Z,4.03
2023-05-02T22:33:06.894Z,3.42
2023-05-02T22:36:09.634Z,3.47
2023-05-02T22:39:13.682Z,3.92
2023-05-02T22:42:16.390Z,3.80
2023-05-02T22:45:19.228Z,4.22
2023-05-02T22:48:22.037Z,3.72
2023-05-02T22:51:25.990Z,3.67
2023-05-02T22:54:28.745Z,4.10
2023-05-02T22:57:31.838Z,4.13
2023-05-02T23:00:34.479Z,3.67
2023-05-02T23:03:37.289Z,4.15
2023-05-02T23:06:40.034Z,4.38
2023-05-02T23:09:42.672Z,4.13
2023-05-02T23:12:45.309Z,4.78
2023-05-02T23:15:55.645Z,4.30
2023-05-02T23:18:58.457Z,4.32
2023-05-02T23:22:03.183Z,4.57
2023-05-02T23:25:07.398Z,4.43
2023-05-02T23:28:10.191Z,4.68
2023-05-02T23:31:13.151Z,4.07
2023-05-02T23:34:16.158Z,4.93
2023-05-02T23:37:18.944Z,4.55
2023-05-02T23:40:21.712Z,4.45
2023-05-02T23:43:24.559Z,5.15
2023-05-02T23:46:27.587Z,5.90
2023-05-02T23:49:30.476Z,5.90
2023-05-02T23:52:33.752Z,5.18
2023-05-02T23:55:36.713Z,5.15
2023-05-02T23:58:39.469Z,5.28
